Time;durP1;ratioP1;P1;durP2;ratioP2;P2;SDS_P1;SDS_P2;PMS_P1;PMS_P2;Temp;Humidity;BMP_temperature;BMP_pressure;BME280_temperature;BME280_humidity;BME280_pressure;Samples;Min_cycle;Max_cycle;Signal;HPM_P1;HPM_P2
2022/01/24 00:02:00;;;;;;;;;;;16.70;50.40;;;;;;5092498;28;19912;-65
2022/01/24 00:04:25;;;;;;;;;;;16.70;50.30;;;;;;5090828;28;19994;-64
2022/01/24 00:06:51;;;;;;;;;;;16.60;50.30;;;;;;5091129;28;19961;-64
2022/01/24 00:09:16;;;;;;;;;;;16.60;50.30;;;;;;5091776;28;19912;-64
2022/01/24 00:27:19;;;;;;;;;;;16.50;50.50;;;;;;5092223;28;19923;-64
2022/01/24 00:29:45;;;;;;;;;;;16.50;50.50;;;;;;5090758;28;19994;-64
2022/01/24 00:32:10;;;;;;;;;;;16.50;50.50;;;;;;5107746;28;19912;-64
2022/01/24 00:34:36;;;;;;;;;;;16.50;50.50;;;;;;5094632;28;19923;-63
2022/01/24 00:37:02;;;;;;;;;;;16.50;50.50;;;;;;5096040;28;19961;-63
2022/01/24 00:39:28;;;;;;;;;;;16.50;50.40;;;;;;5094185;28;19908;-63
2022/01/24 00:42:24;;;;;;;;;;;16.50;50.50;;;;;;5078000;28;19908;-64
2022/01/24 00:45:07;;;;;;;;;;;16.50;50.40;;;;;;5128707;27;20006;-64
2022/01/24 00:55:40;;;;;;;;;;;16.40;50.50;;;;;;5102193;28;19919;-64
2022/01/24 00:58:06;;;;;;;;;;;16.40;50.60;;;;;;5095588;28;19988;-64
2022/01/24 01:00:31;;;;;;;;;;;16.40;50.60;;;;;;5095501;28;19947;-64
2022/01/24 01:02:57;;;;;;;;;;;16.40;50.60;;;;;;5095520;28;20261;-64
2022/01/24 01:18:45;;;;;;;;;;;16.30;50.60;;;;;;5093755;28;19958;-64
2022/01/24 01:21:11;;;;;;;;;;;16.30;50.70;;;;;;5093965;28;20364;-64
2022/01/24 01:23:39;;;;;;;;;;;16.40;50.60;;;;;;5093448;28;19908;-64
2022/01/24 01:26:10;;;;;;;;;;;16.30;50.50;;;;;;5095127;28;19912;-64
2022/01/24 01:28:38;;;;;;;;;;;16.40;50.60;;;;;;5127592;27;19908;-64
2022/01/24 01:31:09;;;;;;;;;;;16.40;50.60;;;;;;5127902;27;19962;-64
2022/01/24 01:34:00;;;;;;;;;;;16.30;50.50;;;;;;5127815;27;19912;-64
2022/01/24 01:53:03;;;;;;;;;;;16.30;50.60;;;;;;5101454;28;19957;-63
2022/01/24 01:55:39;;;;;;;;;;;16.30;50.70;;;;;;5094030;28;20403;-63
2022/01/24 01:58:05;;;;;;;;;;;16.30;50.70;;;;;;5094411;28;19998;-63
2022/01/24 02:00:30;;;;;;;;;;;16.30;50.60;;;;;;5094344;28;19951;-63
2022/01/24 02:02:56;;;;;;;;;;;16.30;50.50;;;;;;5093206;28;20012;-64
2022/01/24 02:05:22;;;;;;;;;;;16.30;50.40;;;;;;5094197;28;19913;-64
2022/01/24 02:07:48;;;;;;;;;;;16.30;50.40;;;;;;5093537;28;19908;-64
2022/01/24 02:10:14;;;;;;;;;;;16.30;50.40;;;;;;5093642;28;19912;-64
2022/01/24 02:12:39;;;;;;;;;;;16.30;50.40;;;;;;5093325;28;19965;-64
2022/01/24 02:15:05;;;;;;;;;;;16.30;50.40;;;;;;5126742;27;20356;-63
2022/01/24 02:17:45;;;;;;;;;;;16.30;50.40;;;;;;5094209;28;20338;-63
2022/01/24 02:20:38;;;;;;;;;;;16.30;50.50;;;;;;5095022;28;20274;-63
2022/01/24 02:25:43;;;;;;;;;;;16.30;50.40;;;;;;5093470;28;20421;-63
2022/01/24 02:28:11;;;;;;;;;;;16.30;50.40;;;;;;5093779;28;19912;-63
2022/01/24 02:33:14;;;;;;;;;;;16.50;50.00;;;;;;5099853;28;19935;-64
2022/01/24 02:35:39;;;;;;;;;;;16.70;49.70;;;;;;5092406;28;19937;-63
2022/01/24 02:38:12;;;;;;;;;;;16.80;49.50;;;;;;5093773;28;19908;-63
2022/01/24 02:40:37;;;;;;;;;;;16.90;49.20;;;;;;5098926;28;19959;-63
2022/01/24 02:48:48;;;;;;;;;;;17.10;48.70;;;;;;5051455;28;20013;-64
2022/01/24 02:53:39;;;;;;;;;;;17.30;48.50;;;;;;5093620;28;20356;-64
2022/01/24 02:56:05;;;;;;;;;;;17.30;48.30;;;;;;5092917;28;19913;-64
2022/01/24 02:58:30;;;;;;;;;;;17.40;48.20;;;;;;5091912;28;19915;-64
2022/01/24 03:00:56;;;;;;;;;;;17.40;48.00;;;;;;5092047;28;19915;-64
2022/01/24 03:03:21;;;;;;;;;;;17.40;47.90;;;;;;5093182;28;19956;-64
2022/01/24 03:05:47;;;;;;;;;;;17.40;47.90;;;;;;5093006;28;19943;-64
2022/01/24 03:08:14;;;;;;;;;;;17.50;47.90;;;;;;5125934;27;19912;-64
2022/01/24 03:10:43;;;;;;;;;;;17.50;47.90;;;;;;5092703;28;19938;-64
2022/01/24 03:15:53;;;;;;;;;;;17.50;47.70;;;;;;5098693;28;20441;-64
2022/01/24 03:18:19;;;;;;;;;;;17.50;47.70;;;;;;5091838;28;20390;-64
2022/01/24 03:20:44;;;;;;;;;;;17.50;48.40;;;;;;5091444;28;19924;-64
2022/01/24 03:23:10;;;;;;;;;;;17.50;47.80;;;;;;5091536;28;19908;-64
2022/01/24 03:25:36;;;;;;;;;;;17.40;47.80;;;;;;5092520;28;19915;-65
2022/01/24 03:28:03;;;;;;;;;;;17.40;47.90;;;;;;5091615;28;19912;-65
2022/01/24 03:30:29;;;;;;;;;;;17.40;47.90;;;;;;5091864;28;20009;-64
2022/01/24 03:32:54;;;;;;;;;;;17.30;47.90;;;;;;5092856;28;19969;-64
2022/01/24 03:35:19;;;;;;;;;;;17.30;48.00;;;;;;5092512;28;19919;-64
2022/01/24 03:37:45;;;;;;;;;;;17.30;48.10;;;;;;5092783;28;19908;-64
2022/01/24 03:40:10;;;;;;;;;;;17.30;48.10;;;;;;5090880;28;19973;-63
2022/01/24 03:42:36;;;;;;;;;;;17.30;48.20;;;;;;5091424;28;20265;-63
2022/01/24 03:45:05;;;;;;;;;;;17.30;48.20;;;;;;5092379;28;19990;-63
2022/01/24 03:50:00;;;;;;;;;;;17.20;48.20;;;;;;5092803;28;19918;-64
2022/01/24 03:52:26;;;;;;;;;;;17.20;48.20;;;;;;5093067;28;19908;-64
2022/01/24 03:54:51;;;;;;;;;;;17.20;48.30;;;;;;5090539;28;19965;-64
2022/01/24 03:57:17;;;;;;;;;;;17.20;48.30;;;;;;5092393;28;20192;-64
2022/01/24 03:59:43;;;;;;;;;;;17.20;48.30;;;;;;5092393;28;19914;-64
2022/01/24 04:02:08;;;;;;;;;;;17.20;48.40;;;;;;5092383;28;20007;-64
2022/01/24 04:04:34;;;;;;;;;;;17.20;49.00;;;;;;5090968;28;19912;-64
2022/01/24 04:07:00;;;;;;;;;;;17.20;48.30;;;;;;5091112;28;19908;-63
2022/01/24 04:09:26;;;;;;;;;;;17.20;48.30;;;;;;5093178;28;19958;-64
2022/01/24 04:11:54;;;;;;;;;;;17.20;48.30;;;;;;5096431;28;19915;-64
2022/01/24 04:14:34;;;;;;;;;;;17.10;48.20;;;;;;5094960;28;20273;-64
2022/01/24 04:22:15;;;;;;;;;;;17.00;48.40;;;;;;5103350;28;19959;-64
2022/01/24 04:24:41;;;;;;;;;;;17.00;48.40;;;;;;5095755;28;19908;-63
2022/01/24 04:27:07;;;;;;;;;;;17.10;48.50;;;;;;5096107;28;20409;-63
2022/01/24 04:29:32;;;;;;;;;;;17.10;48.40;;;;;;5094763;28;19909;-63
2022/01/24 04:31:58;;;;;;;;;;;17.10;48.30;;;;;;5094979;28;20379;-63
2022/01/24 04:34:23;;;;;;;;;;;17.10;48.30;;;;;;5095883;28;20013;-63
2022/01/24 04:36:49;;;;;;;;;;;17.10;48.20;;;;;;5096384;28;19912;-63
2022/01/24 04:39:14;;;;;;;;;;;17.10;48.20;;;;;;5093949;28;19931;-63
2022/01/24 04:41:44;;;;;;;;;;;17.20;48.30;;;;;;5094523;28;20012;-63
2022/01/24 04:47:18;;;;;;;;;;;17.20;48.20;;;;;;5094494;28;19918;-63
2022/01/24 04:54:56;;;;;;;;;;;17.10;48.20;;;;;;5095093;28;19919;-64
2022/01/24 04:57:23;;;;;;;;;;;17.10;48.20;;;;;;5095834;28;19908;-64
2022/01/24 04:59:50;;;;;;;;;;;17.10;48.10;;;;;;5094146;28;19908;-64
2022/01/24 05:02:16;;;;;;;;;;;17.10;48.10;;;;;;5094075;28;19997;-64
2022/01/24 05:04:41;;;;;;;;;;;17.20;48.10;;;;;;5095328;28;20095;-64
2022/01/24 05:07:07;;;;;;;;;;;17.20;48.10;;;;;;5095335;28;19978;-64
2022/01/24 05:25:55;;;;;;;;;;;17.10;48.00;;;;;;5094975;28;19915;-63
2022/01/24 05:28:21;;;;;;;;;;;17.10;48.00;;;;;;5094855;28;19912;-63
2022/01/24 05:30:46;;;;;;;;;;;17.10;48.10;;;;;;5110432;28;19909;-63
2022/01/24 05:33:12;;;;;;;;;;;17.10;48.10;;;;;;5093575;28;19933;-63
2022/01/24 05:35:37;;;;;;;;;;;17.10;48.10;;;;;;5127570;27;20292;-63
2022/01/24 05:38:03;;;;;;;;;;;17.10;48.00;;;;;;5094837;28;19908;-63
2022/01/24 05:40:28;;;;;;;;;;;17.10;48.00;;;;;;5127025;27;19912;-63
2022/01/24 05:42:54;;;;;;;;;;;17.10;48.10;;;;;;5093354;28;19947;-63
2022/01/24 05:45:19;;;;;;;;;;;17.10;48.00;;;;;;5094780;28;19908;-64
2022/01/24 05:47:45;;;;;;;;;;;17.10;48.00;;;;;;5094619;28;19908;-64
2022/01/24 05:50:10;;;;;;;;;;;17.10;48.00;;;;;;5094331;28;19908;-65
2022/01/24 05:52:36;;;;;;;;;;;17.10;48.00;;;;;;5094437;28;20523;-64
2022/01/24 05:55:01;;;;;;;;;;;17.10;48.00;;;;;;5092597;28;20330;-63
2022/01/24 05:57:28;;;;;;;;;;;17.10;47.90;;;;;;5093207;28;19908;-64
2022/01/24 05:59:53;;;;;;;;;;;17.00;47.90;;;;;;5094198;28;19912;-64
2022/01/24 06:02:19;;;;;;;;;;;17.10;48.00;;;;;;5094363;28;19923;-64
2022/01/24 06:04:45;;;;;;;;;;;17.10;48.00;;;;;;5094178;28;19908;-64
2022/01/24 06:07:10;;;;;;;;;;;17.00;47.90;;;;;;5094235;28;19908;-64
2022/01/24 06:09:35;;;;;;;;;;;17.10;48.00;;;;;;5093761;28;19908;-63
2022/01/24 06:12:01;;;;;;;;;;;17.10;48.00;;;;;;5094225;28;19927;-64
2022/01/24 06:14:26;;;;;;;;;;;17.10;48.60;;;;;;5094013;28;19912;-64
2022/01/24 06:16:52;;;;;;;;;;;17.00;47.90;;;;;;5094085;28;19939;-64
2022/01/24 06:19:17;;;;;;;;;;;17.00;48.00;;;;;;5093744;28;19916;-64
2022/01/24 06:21:44;;;;;;;;;;;17.00;47.90;;;;;;5092938;28;19939;-64
2022/01/24 06:24:10;;;;;;;;;;;17.10;48.00;;;;;;5093571;28;19912;-64
2022/01/24 06:26:36;;;;;;;;;;;17.10;48.00;;;;;;5092643;28;20003;-64
2022/01/24 06:29:01;;;;;;;;;;;17.10;47.90;;;;;;5093701;28;19916;-64
2022/01/24 06:31:27;;;;;;;;;;;17.10;48.00;;;;;;5093031;28;20631;-63
2022/01/24 06:33:52;;;;;;;;;;;17.10;48.00;;;;;;5093753;28;20249;-65
2022/01/24 06:36:17;;;;;;;;;;;17.00;47.90;;;;;;5092686;28;19966;-63
2022/01/24 06:38:43;;;;;;;;;;;17.00;47.90;;;;;;5093039;28;19922;-63
2022/01/24 06:41:08;;;;;;;;;;;17.00;47.90;;;;;;5093496;28;19919;-65
2022/01/24 06:43:34;;;;;;;;;;;17.00;47.90;;;;;;5093709;28;19918;-64
2022/01/24 06:46:01;;;;;;;;;;;17.00;47.90;;;;;;5075357;28;19991;-64
2022/01/24 06:48:26;;;;;;;;;;;17.00;47.90;;;;;;5093369;28;19908;-64
2022/01/24 06:50:52;;;;;;;;;;;17.00;47.90;;;;;;5093698;28;20414;-64
2022/01/24 06:53:18;;;;;;;;;;;17.00;47.90;;;;;;5093270;28;19914;-64
2022/01/24 06:55:43;;;;;;;;;;;17.00;47.90;;;;;;5091514;28;19919;-64
2022/01/24 06:58:08;;;;;;;;;;;17.00;47.90;;;;;;5093211;28;19934;-63
2022/01/24 07:00:34;;;;;;;;;;;17.00;47.90;;;;;;5093230;28;19912;-64
2022/01/24 07:02:59;;;;;;;;;;;17.00;47.90;;;;;;5093161;28;19909;-64
2022/01/24 07:05:25;;;;;;;;;;;17.00;48.00;;;;;;5092962;28;19908;-64
2022/01/24 07:07:50;;;;;;;;;;;17.00;48.00;;;;;;5093396;28;20292;-64
2022/01/24 07:10:16;;;;;;;;;;;17.00;47.90;;;;;;5091340;28;19908;-64
2022/01/24 07:12:41;;;;;;;;;;;17.00;48.00;;;;;;5093110;28;20368;-64
2022/01/24 07:15:11;;;;;;;;;;;17.00;47.90;;;;;;5091316;28;19912;-64
2022/01/24 07:18:02;;;;;;;;;;;17.00;47.90;;;;;;5093102;28;19923;-64
2022/01/24 07:20:27;;;;;;;;;;;17.00;47.90;;;;;;5111353;28;20395;-64
2022/01/24 07:22:53;;;;;;;;;;;17.00;47.80;;;;;;5092188;28;19955;-64
2022/01/24 07:25:19;;;;;;;;;;;17.00;47.80;;;;;;5091707;28;19912;-64
2022/01/24 07:27:44;;;;;;;;;;;17.00;47.90;;;;;;5090723;28;19912;-64
2022/01/24 07:30:10;;;;;;;;;;;17.00;47.90;;;;;;5091882;28;19908;-64
2022/01/24 07:32:35;;;;;;;;;;;17.00;47.90;;;;;;5091963;28;19908;-64
2022/01/24 07:35:01;;;;;;;;;;;17.00;47.90;;;;;;5091638;28;19977;-64
2022/01/24 07:37:26;;;;;;;;;;;17.00;47.80;;;;;;5090425;28;19957;-64
2022/01/24 07:39:52;;;;;;;;;;;17.10;47.90;;;;;;5091104;28;20448;-64
2022/01/24 07:42:28;;;;;;;;;;;17.00;47.80;;;;;;5091395;28;20281;-64
2022/01/24 07:44:54;;;;;;;;;;;17.00;47.70;;;;;;5074718;28;19941;-64
2022/01/24 07:47:19;;;;;;;;;;;17.00;47.70;;;;;;5090262;28;19937;-64
2022/01/24 07:49:45;;;;;;;;;;;17.00;47.70;;;;;;5090320;28;19957;-64
2022/01/24 07:52:10;;;;;;;;;;;17.00;47.70;;;;;;5073403;28;20002;-64
2022/01/24 07:54:35;;;;;;;;;;;17.00;47.70;;;;;;5091032;28;19912;-64
2022/01/24 07:57:01;;;;;;;;;;;17.00;47.70;;;;;;5090226;28;19908;-64
2022/01/24 07:59:26;;;;;;;;;;;17.00;47.80;;;;;;5091044;28;19998;-64
2022/01/24 08:01:52;;;;;;;;;;;17.00;47.70;;;;;;5106708;28;19912;-64
2022/01/24 08:04:17;;;;;;;;;;;17.00;47.80;;;;;;5090309;28;19991;-64
2022/01/24 08:06:43;;;;;;;;;;;17.00;47.80;;;;;;5091564;28;20005;-64
2022/01/24 08:09:09;;;;;;;;;;;17.00;47.80;;;;;;5123539;28;19919;-64
2022/01/24 08:11:35;;;;;;;;;;;16.90;47.70;;;;;;5091344;28;19912;-64
2022/01/24 08:14:01;;;;;;;;;;;17.00;47.90;;;;;;5089808;28;19956;-63
2022/01/24 08:16:26;;;;;;;;;;;17.00;47.80;;;;;;5091122;28;19924;-64
2022/01/24 08:18:52;;;;;;;;;;;17.00;47.80;;;;;;5029300;28;1753860;-64
2022/01/24 08:21:18;;;;;;;;;;;17.00;47.70;;;;;;5091961;28;19923;-64
2022/01/24 08:23:44;;;;;;;;;;;16.90;47.60;;;;;;5073578;28;19916;-63
2022/01/24 08:26:09;;;;;;;;;;;17.00;47.70;;;;;;5090763;28;19912;-63
2022/01/24 08:28:34;;;;;;;;;;;17.00;47.70;;;;;;5091858;28;19908;-63
2022/01/24 08:31:00;;;;;;;;;;;17.00;47.80;;;;;;5092022;28;19916;-63
2022/01/24 08:33:25;;;;;;;;;;;16.90;47.70;;;;;;5091870;28;19960;-63
2022/01/24 08:35:51;;;;;;;;;;;17.00;47.70;;;;;;5092069;28;19912;-64
2022/01/24 08:38:17;;;;;;;;;;;17.00;47.70;;;;;;5092108;28;19931;-64
2022/01/24 08:40:45;;;;;;;;;;;17.00;47.70;;;;;;5090121;28;19912;-64
2022/01/24 08:43:11;;;;;;;;;;;16.90;47.60;;;;;;5091987;28;19908;-64
2022/01/24 08:48:11;;;;;;;;;;;17.00;47.70;;;;;;5097802;28;19915;-64
2022/01/24 08:50:36;;;;;;;;;;;17.00;47.60;;;;;;5090565;28;19908;-64
2022/01/24 08:53:03;;;;;;;;;;;17.00;47.60;;;;;;5091807;28;19986;-64
2022/01/24 08:55:29;;;;;;;;;;;16.90;47.60;;;;;;5092430;28;19912;-64
2022/01/24 08:57:57;;;;;;;;;;;16.90;47.60;;;;;;5095647;28;19919;-64
2022/01/24 09:00:22;;;;;;;;;;;17.00;47.70;;;;;;5095394;28;19919;-64
2022/01/24 09:02:48;;;;;;;;;;;17.00;47.70;;;;;;5095342;28;20279;-64
2022/01/24 09:05:14;;;;;;;;;;;16.90;47.60;;;;;;5094031;28;19912;-63
2022/01/24 09:07:39;;;;;;;;;;;17.00;47.60;;;;;;5095350;28;20276;-64
2022/01/24 09:10:05;;;;;;;;;;;17.00;47.60;;;;;;5127514;27;19908;-64
2022/01/24 09:12:30;;;;;;;;;;;17.00;47.60;;;;;;5095557;28;19908;-64
2022/01/24 09:14:56;;;;;;;;;;;17.00;47.60;;;;;;5093955;28;19911;-64
2022/01/24 09:17:21;;;;;;;;;;;17.00;47.60;;;;;;5093881;28;19912;-64
2022/01/24 09:19:47;;;;;;;;;;;17.00;47.50;;;;;;5095004;28;19920;-64
2022/01/24 09:22:12;;;;;;;;;;;17.00;47.50;;;;;;5095188;28;20372;-64
2022/01/24 09:24:38;;;;;;;;;;;16.90;47.40;;;;;;5094711;28;19908;-64
2022/01/24 09:27:03;;;;;;;;;;;17.00;47.60;;;;;;5093730;28;19912;-64
2022/01/24 09:29:29;;;;;;;;;;;17.00;47.60;;;;;;5127659;27;19912;-64
2022/01/24 09:31:54;;;;;;;;;;;16.90;47.60;;;;;;5094826;28;20360;-64
2022/01/24 09:34:20;;;;;;;;;;;16.90;47.60;;;;;;5093387;28;19908;-64
2022/01/24 09:36:47;;;;;;;;;;;16.90;47.60;;;;;;5094909;28;20407;-64
2022/01/24 09:39:13;;;;;;;;;;;16.90;47.60;;;;;;5094212;28;19912;-64
2022/01/24 09:41:39;;;;;;;;;;;17.00;47.60;;;;;;5093516;28;20387;-64
2022/01/24 09:44:04;;;;;;;;;;;16.90;47.50;;;;;;5093027;28;19912;-64
2022/01/24 09:46:30;;;;;;;;;;;16.90;47.50;;;;;;5094516;28;19908;-64
2022/01/24 09:48:56;;;;;;;;;;;16.90;47.60;;;;;;5094500;28;19915;-64
2022/01/24 09:51:21;;;;;;;;;;;16.90;47.50;;;;;;5093216;28;19995;-64
2022/01/24 09:53:47;;;;;;;;;;;16.90;47.60;;;;;;5126737;27;19916;-64
2022/01/24 09:56:12;;;;;;;;;;;16.90;47.60;;;;;;5092959;28;19916;-64
2022/01/24 09:58:37;;;;;;;;;;;16.80;47.50;;;;;;5094216;28;19954;-64
2022/01/24 10:01:04;;;;;;;;;;;16.90;47.60;;;;;;5094639;28;19957;-64
2022/01/24 10:03:29;;;;;;;;;;;16.90;47.60;;;;;;5092902;28;19951;-64
2022/01/24 10:05:55;;;;;;;;;;;16.90;47.50;;;;;;5093263;28;20346;-64
2022/01/24 10:08:22;;;;;;;;;;;16.90;47.50;;;;;;5094184;28;20221;-63
2022/01/24 10:10:49;;;;;;;;;;;16.90;47.40;;;;;;5075666;28;19908;-63
2022/01/24 10:16:55;;;;;;;;;;;17.00;47.50;;;;;;5093998;28;19926;-64
2022/01/24 10:19:15;;;;;;;;;;;16.90;47.40;;;;;;5093867;28;19965;-64
2022/01/24 10:21:41;;;;;;;;;;;16.90;47.40;;;;;;5093953;28;19908;-64
2022/01/24 10:24:07;;;;;;;;;;;16.90;47.40;;;;;;5093271;28;20351;-64
2022/01/24 10:26:33;;;;;;;;;;;16.90;47.40;;;;;;5092621;28;19944;-64
2022/01/24 10:28:58;;;;;;;;;;;16.90;47.40;;;;;;5093808;28;20026;-64
2022/01/24 10:31:28;;;;;;;;;;;16.90;47.40;;;;;;5093764;28;19913;-64
2022/01/24 10:34:13;;;;;;;;;;;16.90;47.40;;;;;;5075846;28;19938;-64
2022/01/24 10:36:45;;;;;;;;;;;16.90;47.40;;;;;;5094033;28;20378;-64
2022/01/24 10:39:18;;;;;;;;;;;16.90;47.40;;;;;;5074988;28;19915;-64
2022/01/24 10:42:09;;;;;;;;;;;16.90;47.40;;;;;;5093428;28;19912;-64
2022/01/24 10:44:35;;;;;;;;;;;16.90;47.40;;;;;;5092818;28;19955;-63
2022/01/24 10:47:10;;;;;;;;;;;16.90;47.40;;;;;;5092237;28;19908;-63
2022/01/24 10:49:36;;;;;;;;;;;16.90;47.40;;;;;;5092018;28;19908;-63
2022/01/24 10:52:09;;;;;;;;;;;16.90;47.40;;;;;;5093261;28;20275;-64
2022/01/24 10:54:34;;;;;;;;;;;16.90;47.40;;;;;;5091481;28;19920;-64
2022/01/24 10:57:00;;;;;;;;;;;16.90;47.40;;;;;;5093227;28;19962;-64
2022/01/24 10:59:25;;;;;;;;;;;16.90;47.40;;;;;;5092976;28;19915;-64
2022/01/24 11:01:52;;;;;;;;;;;16.90;47.50;;;;;;5093522;28;19939;-64
2022/01/24 11:04:17;;;;;;;;;;;16.90;47.40;;;;;;5091700;28;19909;-64
2022/01/24 11:06:43;;;;;;;;;;;16.80;47.40;;;;;;5074876;28;19909;-63
2022/01/24 11:09:13;;;;;;;;;;;16.90;47.40;;;;;;5091301;28;19912;-64
2022/01/24 11:11:38;;;;;;;;;;;16.80;47.30;;;;;;5091756;28;19935;-64
2022/01/24 11:14:05;;;;;;;;;;;16.90;47.40;;;;;;5091322;28;20007;-63
2022/01/24 11:16:30;;;;;;;;;;;16.90;47.30;;;;;;5091640;28;19916;-63
2022/01/24 11:18:56;;;;;;;;;;;16.90;47.30;;;;;;5090984;28;19908;-63
2022/01/24 11:21:21;;;;;;;;;;;16.90;47.30;;;;;;5091609;28;19915;-63
2022/01/24 11:23:47;;;;;;;;;;;16.90;47.30;;;;;;5125143;27;20388;-63
2022/01/24 11:26:12;;;;;;;;;;;16.90;47.30;;;;;;5091470;28;19916;-64
2022/01/24 11:28:38;;;;;;;;;;;16.90;47.30;;;;;;5091361;28;19912;-64
2022/01/24 11:31:19;;;;;;;;;;;16.90;47.30;;;;;;5092790;28;20379;-64
2022/01/24 11:33:47;;;;;;;;;;;16.90;47.30;;;;;;5091441;28;19912;-64
2022/01/24 11:36:13;;;;;;;;;;;16.90;47.30;;;;;;5092642;28;20041;-64
2022/01/24 11:38:40;;;;;;;;;;;16.90;47.30;;;;;;5092147;28;20409;-64
2022/01/24 11:41:06;;;;;;;;;;;16.90;47.20;;;;;;5091281;28;21143;-64
2022/01/24 11:43:34;;;;;;;;;;;16.90;47.20;;;;;;5092430;28;19969;-64
2022/01/24 11:46:05;;;;;;;;;;;16.90;47.20;;;;;;5091277;28;19912;-64
2022/01/24 11:48:32;;;;;;;;;;;16.90;47.30;;;;;;5098106;28;19939;-64
2022/01/24 11:50:58;;;;;;;;;;;16.90;47.30;;;;;;5092590;28;19908;-64
2022/01/24 11:53:26;;;;;;;;;;;16.90;47.30;;;;;;5092514;28;19918;-64
2022/01/24 11:55:54;;;;;;;;;;;16.80;47.10;;;;;;5090913;28;19912;-64
2022/01/24 11:58:29;;;;;;;;;;;16.90;47.20;;;;;;5092245;28;20022;-64
2022/01/24 12:00:57;;;;;;;;;;;16.90;47.20;;;;;;5073973;28;19912;-64
2022/01/24 12:03:26;;;;;;;;;;;16.90;47.30;;;;;;5092155;28;19965;-64
2022/01/24 12:05:53;;;;;;;;;;;16.90;47.30;;;;;;5091956;28;19958;-64
2022/01/24 12:08:31;;;;;;;;;;;16.90;47.20;;;;;;5092378;28;20529;-64
2022/01/24 12:11:19;;;;;;;;;;;16.90;47.20;;;;;;5090750;28;19908;-64
2022/01/24 12:13:53;;;;;;;;;;;16.90;47.20;;;;;;5085809;28;19911;-64
2022/01/24 12:16:19;;;;;;;;;;;16.90;47.20;;;;;;5074320;28;19918;-64
2022/01/24 12:18:45;;;;;;;;;;;16.80;47.10;;;;;;5090660;28;20350;-64
2022/01/24 12:21:11;;;;;;;;;;;16.80;47.10;;;;;;5074079;28;19999;-64
2022/01/24 12:23:37;;;;;;;;;;;16.90;47.20;;;;;;5090536;28;20457;-64
2022/01/24 12:26:23;;;;;;;;;;;16.90;47.20;;;;;;5092259;28;19920;-64
2022/01/24 12:28:59;;;;;;;;;;;16.90;47.20;;;;;;5091844;28;19959;-64
2022/01/24 12:31:32;;;;;;;;;;;16.90;47.20;;;;;;5078258;28;19930;-64
2022/01/24 12:33:58;;;;;;;;;;;16.90;47.20;;;;;;5077942;28;19954;-64
2022/01/24 12:36:46;;;;;;;;;;;16.90;47.10;;;;;;5096061;28;19993;-64
2022/01/24 12:39:21;;;;;;;;;;;16.90;47.80;;;;;;5128240;27;19908;-64
2022/01/24 12:41:50;;;;;;;;;;;16.80;47.10;;;;;;5096090;28;19998;-64
2022/01/24 12:47:00;;;;;;;;;;;16.80;47.10;;;;;;5094907;28;19958;-64
2022/01/24 12:49:26;;;;;;;;;;;16.90;47.20;;;;;;5095618;28;20377;-64
2022/01/24 12:51:52;;;;;;;;;;;16.90;47.20;;;;;;5095844;28;19947;-64
2022/01/24 12:54:17;;;;;;;;;;;16.90;47.20;;;;;;5095366;28;19908;-64
2022/01/24 12:56:43;;;;;;;;;;;16.80;47.10;;;;;;5094412;28;20006;-64
2022/01/24 12:59:08;;;;;;;;;;;16.90;47.20;;;;;;5095441;28;20305;-64
2022/01/24 13:01:34;;;;;;;;;;;16.90;47.20;;;;;;5094304;28;19931;-64
2022/01/24 13:04:10;;;;;;;;;;;16.90;47.10;;;;;;5077270;28;19912;-64
2022/01/24 13:06:37;;;;;;;;;;;16.90;47.10;;;;;;5095579;28;19961;-64
2022/01/24 13:09:03;;;;;;;;;;;16.90;47.10;;;;;;5095002;28;19916;-64
2022/01/24 13:11:29;;;;;;;;;;;16.80;47.00;;;;;;5094268;28;19912;-64
2022/01/24 13:13:58;;;;;;;;;;;16.90;47.10;;;;;;5095131;28;20050;-63
2022/01/24 13:22:22;;;;;;;;;;;16.80;47.00;;;;;;5094923;28;19915;-64
2022/01/24 13:25:04;;;;;;;;;;;16.90;47.10;;;;;;5095044;28;19908;-64
2022/01/24 13:27:40;;;;;;;;;;;16.90;47.10;;;;;;5093551;28;19912;-64
2022/01/24 13:30:07;;;;;;;;;;;16.90;47.10;;;;;;5094949;28;19908;-64
2022/01/24 13:32:47;;;;;;;;;;;16.90;47.10;;;;;;5094733;28;19912;-64
2022/01/24 13:35:35;;;;;;;;;;;16.80;47.00;;;;;;5094871;28;19923;-64
2022/01/24 13:38:08;;;;;;;;;;;16.80;47.10;;;;;;5089086;28;20005;-64
2022/01/24 13:40:53;;;;;;;;;;;16.80;47.10;;;;;;5094061;28;19991;-64
2022/01/24 13:43:37;;;;;;;;;;;16.80;47.10;;;;;;5101589;28;20338;-64
2022/01/24 13:46:04;;;;;;;;;;;16.80;47.10;;;;;;5094733;28;19927;-64
2022/01/24 13:48:35;;;;;;;;;;;16.80;47.10;;;;;;5093373;28;19916;-64
2022/01/24 13:51:01;;;;;;;;;;;16.80;47.20;;;;;;5100187;28;19912;-64
2022/01/24 13:53:32;;;;;;;;;;;16.80;47.20;;;;;;5093095;28;20425;-64
2022/01/24 13:55:58;;;;;;;;;;;16.80;47.10;;;;;;5094677;28;19912;-64
2022/01/24 13:58:24;;;;;;;;;;;16.80;47.10;;;;;;5094342;28;19914;-64
2022/01/24 14:00:57;;;;;;;;;;;16.80;47.10;;;;;;5076157;28;19912;-64
2022/01/24 14:03:22;;;;;;;;;;;16.80;47.10;;;;;;5093089;28;19912;-64
2022/01/24 14:05:48;;;;;;;;;;;16.80;47.10;;;;;;5094234;28;20433;-64
2022/01/24 14:08:16;;;;;;;;;;;16.80;47.10;;;;;;5094254;28;19908;-64
2022/01/24 14:10:42;;;;;;;;;;;16.80;47.10;;;;;;5093707;28;19908;-64
2022/01/24 14:13:08;;;;;;;;;;;16.80;47.20;;;;;;5092653;28;19919;-64
2022/01/24 14:15:53;;;;;;;;;;;16.70;47.10;;;;;;5092933;28;20502;-64
2022/01/24 14:18:25;;;;;;;;;;;16.70;47.20;;;;;;5093126;28;19908;-64
2022/01/24 14:20:55;;;;;;;;;;;16.80;47.20;;;;;;5094407;28;19920;-64
2022/01/24 14:23:25;;;;;;;;;;;16.80;47.10;;;;;;5092643;28;19946;-64
2022/01/24 14:25:50;;;;;;;;;;;16.80;47.20;;;;;;5092164;28;19908;-64
2022/01/24 14:28:16;;;;;;;;;;;16.70;47.00;;;;;;5092466;28;19908;-62
2022/01/24 14:30:43;;;;;;;;;;;16.70;47.00;;;;;;5093714;28;19956;-63
2022/01/24 14:33:12;;;;;;;;;;;16.80;47.10;;;;;;5092529;28;19943;-63
2022/01/24 14:35:47;;;;;;;;;;;16.80;47.10;;;;;;5093689;28;19912;-63
2022/01/24 14:38:16;;;;;;;;;;;16.80;47.10;;;;;;5092558;28;20286;-63
2022/01/24 14:40:48;;;;;;;;;;;16.70;47.00;;;;;;5093194;28;19915;-64
2022/01/24 14:45:59;;;;;;;;;;;16.80;47.10;;;;;;5093402;28;19962;-64
2022/01/24 14:48:25;;;;;;;;;;;16.80;47.00;;;;;;5093468;28;19943;-64
2022/01/24 14:50:50;;;;;;;;;;;16.80;46.90;;;;;;5092125;28;20388;-64
2022/01/24 14:53:16;;;;;;;;;;;16.80;47.00;;;;;;5092714;28;20323;-64
2022/01/24 14:55:42;;;;;;;;;;;16.80;47.10;;;;;;5091455;28;20411;-64
2022/01/24 14:58:08;;;;;;;;;;;16.80;47.10;;;;;;5093210;28;19909;-64
2022/01/24 15:00:33;;;;;;;;;;;16.80;47.00;;;;;;5125618;27;20412;-64
2022/01/24 15:02:58;;;;;;;;;;;16.80;47.00;;;;;;5093140;28;19919;-64
2022/01/24 15:05:24;;;;;;;;;;;16.80;46.90;;;;;;5093119;28;19927;-63
2022/01/24 15:07:49;;;;;;;;;;;16.80;47.60;;;;;;5092130;28;20011;-63
2022/01/24 15:10:15;;;;;;;;;;;16.80;46.90;;;;;;5092633;28;19908;-63
2022/01/24 15:12:47;;;;;;;;;;;16.80;46.90;;;;;;5093192;28;19908;-63
2022/01/24 15:15:15;;;;;;;;;;;16.80;46.90;;;;;;5098416;28;19916;-64
2022/01/24 15:25:52;;;;;;;;;;;16.80;46.90;;;;;;5092593;28;19927;-64
2022/01/24 15:28:18;;;;;;;;;;;16.80;46.80;;;;;;5091574;28;19908;-64
2022/01/24 15:30:43;;;;;;;;;;;16.80;46.80;;;;;;5091484;28;19962;-64
2022/01/24 15:33:09;;;;;;;;;;;16.80;46.80;;;;;;5091514;28;19919;-63
2022/01/24 15:35:34;;;;;;;;;;;16.80;46.70;;;;;;5092556;28;20364;-63
2022/01/24 15:38:04;;;;;;;;;;;16.80;46.80;;;;;;5092770;28;19908;-63
2022/01/24 15:40:30;;;;;;;;;;;16.80;46.70;;;;;;5092258;28;19912;-63
2022/01/24 15:43:07;;;;;;;;;;;16.90;46.80;;;;;;5092786;28;20364;-63
2022/01/24 15:45:42;;;;;;;;;;;16.80;46.70;;;;;;5125361;27;19919;-63
2022/01/24 15:48:08;;;;;;;;;;;16.80;46.70;;;;;;5099417;28;19908;-63
2022/01/24 15:50:33;;;;;;;;;;;16.80;46.70;;;;;;5091130;28;20288;-63
2022/01/24 15:52:59;;;;;;;;;;;16.80;46.70;;;;;;5092593;28;19912;-63
2022/01/24 15:55:28;;;;;;;;;;;16.80;46.90;;;;;;5090718;28;19912;-63
2022/01/24 15:57:53;;;;;;;;;;;16.80;46.90;;;;;;5092450;28;19912;-63
2022/01/24 16:00:23;;;;;;;;;;;16.80;46.90;;;;;;5091338;28;19923;-63
2022/01/24 16:02:50;;;;;;;;;;;16.80;46.80;;;;;;5092422;28;19979;-64
2022/01/24 16:05:16;;;;;;;;;;;16.80;46.70;;;;;;5090077;28;19912;-63
2022/01/24 16:07:42;;;;;;;;;;;16.80;46.70;;;;;;5090996;28;19908;-63
2022/01/24 16:10:10;;;;;;;;;;;16.80;46.80;;;;;;5091814;28;20265;-63
2022/01/24 16:12:37;;;;;;;;;;;16.70;46.70;;;;;;5091139;28;20388;-63
2022/01/24 16:15:03;;;;;;;;;;;16.80;46.90;;;;;;5090842;28;20269;-63
2022/01/24 16:17:29;;;;;;;;;;;16.80;46.90;;;;;;5090964;28;19934;-63
2022/01/24 16:19:56;;;;;;;;;;;16.80;46.80;;;;;;5092065;28;19928;-63
2022/01/24 16:22:45;;;;;;;;;;;16.80;46.80;;;;;;5092264;28;19930;-64
2022/01/24 16:25:33;;;;;;;;;;;16.70;46.80;;;;;;5124520;28;19943;-63
2022/01/24 16:27:58;;;;;;;;;;;16.80;46.90;;;;;;5091481;28;19908;-63